Time;durP1;ratioP1;P1;durP2;ratioP2;P2;SDS_P1;SDS_P2;PMS_P1;PMS_P2;Temp;Humidity;BMP_temperature;BMP_pressure;BME280_temperature;BME280_humidity;BME280_pressure;Samples;Min_cycle;Max_cycle;Signal;HPM_P1;HPM_P2
2022/09/05 00:00:29;;;;;;;5.40;1.50;;;;;;;9.26;86.11;101247.58;103488;1288;72437;-78
2022/09/05 00:04:05;;;;;;;5.30;1.60;;;;;;;9.26;86.34;101245.81;103772;1288;59360;-79
2022/09/05 00:08:23;;;;;;;6.10;1.70;;;;;;;9.26;86.78;101243.69;103782;1287;61524;-78
2022/09/05 00:11:42;;;;;;;6.00;1.40;;;;;;;9.28;86.82;101241.13;103591;1287;73799;-79
2022/09/05 00:15:18;;;;;;;5.00;1.50;;;;;;;9.26;87.10;101244.04;104002;1285;66975;-79
2022/09/05 00:18:57;;;;;;;6.70;1.40;;;;;;;9.26;87.33;101240.67;103951;1285;71473;-78
2022/09/05 00:23:04;;;;;;;5.10;1.70;;;;;;;9.30;87.37;101243.84;103864;1285;59584;-79
2022/09/05 00:27:23;;;;;;;5.70;1.30;;;;;;;9.29;87.22;101241.04;103961;1285;59349;-78
2022/09/05 00:31:01;;;;;;;4.70;1.40;;;;;;;9.27;87.19;101238.67;103293;1291;73466;-75
2022/09/05 00:34:58;;;;;;;4.70;1.20;;;;;;;9.23;87.31;101239.30;103320;1291;69472;-78
2022/09/05 00:38:31;;;;;;;5.20;1.60;;;;;;;9.16;87.71;101238.19;104016;1285;74260;-77
2022/09/05 00:41:41;;;;;;;5.30;1.40;;;;;;;9.12;87.98;101240.52;103907;1285;61074;-78
2022/09/05 00:45:01;;;;;;;5.30;1.50;;;;;;;9.12;88.19;101237.89;103822;1285;59349;-77
2022/09/05 00:48:24;;;;;;;5.40;1.50;;;;;;;9.12;88.27;101235.21;104276;1281;73794;-77
2022/09/05 00:52:07;;;;;;;4.80;1.30;;;;;;;9.14;88.42;101234.08;104477;1281;69392;-79
2022/09/05 00:55:19;;;;;;;5.80;1.70;;;;;;;9.15;88.67;101237.00;104364;1281;71596;-77
2022/09/05 00:58:59;;;;;;;5.00;1.50;;;;;;;9.10;88.72;101235.50;104424;1281;59768;-77
2022/09/05 01:02:29;;;;;;;4.70;1.30;;;;;;;9.05;88.92;101230.13;104391;1281;59318;-76
2022/09/05 01:06:27;;;;;;;5.50;1.50;;;;;;;8.98;88.73;101227.80;103580;1278;70338;-76
2022/09/05 01:09:49;;;;;;;8.10;1.60;;;;;;;8.94;88.91;101234.55;104983;1273;66612;-76
2022/09/05 01:13:17;;;;;;;7.80;1.60;;;;;;;8.92;89.01;101234.70;104993;1273;74171;-76
2022/09/05 01:17:03;;;;;;;6.10;1.60;;;;;;;8.93;89.33;101236.23;104989;1273;61108;-76
2022/09/05 01:20:31;;;;;;;5.20;1.60;;;;;;;8.93;89.35;101236.02;105028;1273;60378;-77
2022/09/05 01:23:56;;;;;;;5.80;1.40;;;;;;;8.92;89.45;101240.00;104987;1273;71015;-77
2022/09/05 01:27:47;;;;;;;6.10;1.50;;;;;;;8.88;89.63;101236.84;104855;1273;67109;-77
2022/09/05 01:31:49;;;;;;;5.00;1.50;;;;;;;8.83;89.76;101241.49;104906;1273;74199;-79
2022/09/05 01:35:26;;;;;;;5.90;1.40;;;;;;;8.78;89.99;101238.92;104954;1273;59339;-78
2022/09/05 01:38:53;;;;;;;5.40;1.80;;;;;;;8.75;89.99;101236.61;104951;1273;61781;-76
2022/09/05 01:43:01;;;;;;;5.00;1.50;;;;;;;8.74;90.02;101236.46;105315;1273;71501;-78
2022/09/05 01:46:38;;;;;;;5.00;1.40;;;;;;;8.73;89.91;101241.34;105133;1273;68008;-80
2022/09/05 01:50:31;;;;;;;5.40;1.80;;;;;;;8.73;90.03;101241.33;105062;1273;74296;-76
2022/09/05 01:54:09;;;;;;;5.00;1.40;;;;;;;8.72;90.42;101246.52;104389;1281;59521;-76
2022/09/05 01:57:54;;;;;;;5.20;1.50;;;;;;;8.69;90.68;101244.68;104370;1281;59983;-77
2022/09/05 02:01:25;;;;;;;4.80;1.40;;;;;;;8.66;90.48;101243.09;104381;1281;75507;-77
2022/09/05 02:04:53;;;;;;;4.90;1.60;;;;;;;8.63;90.60;101240.39;104245;1282;66806;-77
2022/09/05 02:08:14;;;;;;;5.00;1.40;;;;;;;8.63;90.60;101241.09;104382;1281;74246;-77
2022/09/05 02:11:50;;;;;;;5.60;1.40;;;;;;;8.63;90.95;101237.05;104442;1281;59455;-77
2022/09/05 02:15:08;;;;;;;5.60;1.70;;;;;;;8.63;90.65;101241.79;104385;1281;61865;-77
2022/09/05 02:18:26;;;;;;;5.20;1.40;;;;;;;8.59;90.85;101244.33;104103;1282;70403;-76
2022/09/05 02:21:37;;;;;;;5.10;1.30;;;;;;;8.55;91.08;101242.95;104290;1281;69311;-77
2022/09/05 02:25:13;;;;;;;5.30;1.60;;;;;;;8.51;91.13;101244.01;104240;1281;72973;-77
2022/09/05 02:29:06;;;;;;;6.50;1.40;;;;;;;8.47;91.29;101246.32;104280;1281;61153;-77
2022/09/05 02:32:35;;;;;;;5.40;1.60;;;;;;;8.46;91.70;101250.27;105022;1273;61831;-78
2022/09/05 02:36:09;;;;;;;6.30;1.60;;;;;;;8.46;92.17;101244.77;105267;1273;73844;-78
2022/09/05 02:39:46;;;;;;;5.30;1.50;;;;;;;8.47;92.14;101244.20;105071;1273;66612;-78
2022/09/05 02:43:36;;;;;;;5.90;1.80;;;;;;;8.47;92.12;101246.33;105053;1273;73137;-78
2022/09/05 02:47:37;;;;;;;6.60;1.90;;;;;;;8.45;92.03;101248.71;105030;1273;59581;-77
2022/09/05 02:51:10;;;;;;;5.30;1.50;;;;;;;8.42;92.10;101248.15;105083;1273;61875;-80
2022/09/05 02:54:42;;;;;;;5.60;1.30;;;;;;;8.37;92.63;101248.73;104974;1273;71066;-78
2022/09/05 02:58:37;;;;;;;5.30;1.50;;;;;;;8.35;93.25;101243.86;105018;1273;65774;-78
2022/09/05 03:02:43;;;;;;;5.20;1.60;;;;;;;8.36;93.60;101240.63;104045;1283;72755;-76
2022/09/05 03:05:58;;;;;;;6.10;2.10;;;;;;;8.37;93.93;101245.39;103997;1284;59421;-76
2022/09/05 03:09:16;;;;;;;5.50;1.80;;;;;;;8.38;94.36;101243.23;104193;1285;59387;-78
2022/09/05 03:13:00;;;;;;;5.70;1.90;;;;;;;8.39;94.74;101244.41;103976;1284;73953;-78
2022/09/05 03:16:30;;;;;;;7.30;1.90;;;;;;;8.39;94.42;101248.48;104056;1285;66718;-77
2022/09/05 03:20:08;;;;;;;5.50;2.10;;;;;;;8.39;94.76;101247.23;103975;1284;74092;-76
2022/09/05 03:23:35;;;;;;;6.60;2.10;;;;;;;8.38;94.77;101254.02;104025;1284;61082;-77
2022/09/05 03:27:38;;;;;;;6.20;2.20;;;;;;;8.37;94.98;101255.65;104011;1284;61855;-77
2022/09/05 03:31:05;;;;;;;6.10;2.20;;;;;;;8.33;95.10;101257.40;104117;1285;71305;-78
2022/09/05 03:35:05;;;;;;;6.20;2.10;;;;;;;8.32;94.80;101260.30;104099;1285;68700;-78
2022/09/05 03:38:41;;;;;;;6.10;2.10;;;;;;;8.31;94.93;101264.41;104314;1274;73975;-77
2022/09/05 03:42:19;;;;;;;8.10;2.10;;;;;;;8.31;95.00;101269.02;105072;1273;59287;-77
2022/09/05 03:45:43;;;;;;;6.80;2.30;;;;;;;8.31;95.17;101262.14;105246;1273;63611;-78
2022/09/05 03:49:15;;;;;;;6.50;2.30;;;;;;;8.29;95.06;101262.77;104703;1273;1002630;-75
2022/09/05 03:52:56;;;;;;;7.10;2.70;;;;;;;8.27;95.11;101262.70;104557;1280;66666;-77
2022/09/05 03:57:14;;;;;;;6.40;2.40;;;;;;;8.27;95.12;101260.92;104583;1281;74270;-79
2022/09/05 04:01:02;;;;;;;6.40;2.30;;;;;;;8.27;95.30;101260.59;103399;1291;60090;-78
2022/09/05 04:04:35;;;;;;;6.30;2.40;;;;;;;8.27;95.56;101264.80;102853;1297;62029;-79
2022/09/05 04:08:40;;;;;;;6.80;2.60;;;;;;;8.29;95.96;101271.94;102828;1297;73896;-79
2022/09/05 04:11:56;;;;;;;6.70;2.50;;;;;;;8.29;96.01;101271.05;103015;1297;67091;-78
2022/09/05 04:15:16;;;;;;;7.70;2.50;;;;;;;8.31;96.15;101276.81;102699;1297;74410;-78
2022/09/05 04:18:35;;;;;;;7.20;2.30;;;;;;;8.33;96.04;101264.52;102689;1297;59162;-80
2022/09/05 04:22:09;;;;;;;8.40;2.40;;;;;;;8.33;96.30;101266.78;102818;1296;62353;-77
2022/09/05 04:25:30;;;;;;;7.20;2.10;;;;;;;8.32;96.12;101270.19;103545;1296;73175;-79
2022/09/05 04:29:13;;;;;;;7.20;2.30;;;;;;;8.33;96.38;101271.40;102989;1294;69360;-81
2022/09/05 04:33:21;;;;;;;5.90;2.20;;;;;;;8.37;96.82;101275.11;103504;1291;75996;-80
2022/09/05 04:36:44;;;;;;;7.10;2.30;;;;;;;8.44;96.70;101276.69;103403;1285;59403;-80
2022/09/05 04:39:49;;;;;;;6.10;2.10;;;;;;;8.48;96.74;101280.92;104052;1285;60066;-79
2022/09/05 04:43:03;;;;;;;6.80;2.20;;;;;;;8.54;96.75;101284.18;104104;1284;72360;-80
2022/09/05 04:46:30;;;;;;;8.10;2.50;;;;;;;8.60;96.50;101278.96;104130;1285;69356;-79
2022/09/05 04:50:23;;;;;;;9.30;2.70;;;;;;;8.67;96.07;101278.08;103991;1285;74258;-80
2022/09/05 04:53:55;;;;;;;6.60;2.50;;;;;;;8.74;96.38;101285.17;103562;1290;59359;-80
2022/09/05 04:57:07;;;;;;;6.80;2.40;;;;;;;8.78;96.16;101292.20;103382;1293;59768;-80
2022/09/05 05:00:47;;;;;;;7.50;2.30;;;;;;;8.83;95.71;101297.98;103845;1287;73869;-78
2022/09/05 05:04:19;;;;;;;6.50;2.30;;;;;;;8.88;96.30;101301.61;103834;1287;66711;-79
2022/09/05 05:08:17;;;;;;;7.70;2.60;;;;;;;8.95;96.18;101308.48;104095;1287;71029;-78
2022/09/05 05:12:10;;;;;;;7.20;2.80;;;;;;;9.09;96.14;101311.20;103978;1282;59471;-78
2022/09/05 05:16:02;;;;;;;7.20;2.70;;;;;;;9.20;95.88;101316.95;104389;1282;61845;-77
2022/09/05 05:19:44;;;;;;;8.20;3.20;;;;;;;9.41;94.92;101315.17;104365;1282;73774;-79
2022/09/05 05:23:18;;;;;;;7.90;2.40;;;;;;;9.63;94.95;101308.48;104188;1282;67709;-81
2022/09/05 05:26:31;;;;;;;8.80;2.20;;;;;;;9.82;94.76;101312.45;104754;1281;74241;-79
2022/09/05 05:30:12;;;;;;;6.70;2.30;;;;;;;10.01;94.58;101312.46;104399;1274;59438;-80
2022/09/05 05:33:37;;;;;;;8.60;3.00;;;;;;;10.21;93.07;101319.69;104701;1279;59426;-80
2022/09/05 05:37:00;;;;;;;7.60;2.80;;;;;;;10.28;90.82;101329.60;104391;1279;73806;-81
2022/09/05 05:40:29;;;;;;;9.10;2.50;;;;;;;10.27;90.87;101331.09;104508;1279;66723;-80
2022/09/05 05:43:47;;;;;;;6.90;2.30;;;;;;;10.33;91.43;101331.11;104598;1279;71824;-79
2022/09/05 05:47:02;;;;;;;9.30;2.10;;;;;;;10.43;91.38;101333.03;104469;1279;59360;-81
2022/09/05 05:50:40;;;;;;;7.60;2.40;;;;;;;10.55;91.57;101327.36;104865;1279;59289;-80
2022/09/05 05:54:16;;;;;;;8.20;2.30;;;;;;;10.69;91.31;101334.55;104626;1280;70246;-80
2022/09/05 05:57:33;;;;;;;7.60;2.10;;;;;;;10.78;91.72;101332.95;104653;1279;69378;-81
2022/09/05 06:00:53;;;;;;;7.00;2.40;;;;;;;10.85;91.60;101335.22;104724;1281;72778;-78
2022/09/05 06:04:51;;;;;;;7.80;2.50;;;;;;;10.91;91.29;101335.04;104499;1281;61170;-78
2022/09/05 06:08:21;;;;;;;7.10;2.40;;;;;;;10.97;91.83;101335.97;103975;1282;59535;-78
2022/09/05 06:12:50;;;;;;;6.20;2.10;;;;;;;11.05;91.86;101339.73;104422;1282;71746;-78
2022/09/05 06:16:50;;;;;;;10.20;2.70;;;;;;;11.17;91.92;101335.47;104468;1282;66177;-78
2022/09/05 06:20:38;;;;;;;6.60;2.20;;;;;;;11.24;92.84;101338.63;104888;1282;74195;-79
2022/09/05 06:24:28;;;;;;;6.90;1.90;;;;;;;11.30;93.01;101343.45;104060;1288;59471;-78
2022/09/05 06:28:24;;;;;;;6.20;2.00;;;;;;;11.37;93.35;101345.46;104109;1288;63716;-79
2022/09/05 06:31:45;;;;;;;7.80;2.30;;;;;;;11.44;93.08;101346.85;102941;1296;73807;-79
2022/09/05 06:35:09;;;;;;;6.20;1.80;;;;;;;11.49;93.16;101345.98;103259;1297;67024;-80
2022/09/05 06:39:02;;;;;;;6.30;2.00;;;;;;;11.56;92.88;101349.83;102852;1297;75741;-79
2022/09/05 06:42:43;;;;;;;5.90;2.10;;;;;;;11.65;93.41;101349.27;102911;1297;59661;-79
2022/09/05 06:46:03;;;;;;;6.80;1.90;;;;;;;11.78;93.20;101350.45;103561;1288;59447;-78
2022/09/05 06:49:44;;;;;;;6.80;2.20;;;;;;;11.89;93.17;101352.41;103725;1288;71307;-77
2022/09/05 06:53:55;;;;;;;5.70;1.40;;;;;;;12.05;93.10;101353.91;103431;1290;68200;-77
2022/09/05 06:57:22;;;;;;;8.40;3.30;;;;;;;12.29;92.93;101349.40;103610;1288;74272;-76
2022/09/05 07:00:54;;;;;;;6.00;1.90;;;;;;;12.51;92.84;101353.11;103832;1282;59368;-76
2022/09/05 07:04:39;;;;;;;6.60;1.90;;;;;;;12.67;91.91;101352.98;104151;1285;59471;-75
2022/09/05 07:08:22;;;;;;;5.90;1.80;;;;;;;12.80;91.84;101356.73;104837;1276;73783;-71
2022/09/05 07:12:06;;;;;;;5.70;1.70;;;;;;;12.94;91.66;101362.05;104889;1276;66719;-74
2022/09/05 07:15:39;;;;;;;7.00;2.00;;;;;;;13.05;91.25;101359.89;104859;1276;74250;-76
2022/09/05 07:19:03;;;;;;;5.50;1.40;;;;;;;13.19;91.08;101359.98;104824;1276;61147;-76
2022/09/05 07:22:34;;;;;;;5.00;1.40;;;;;;;13.37;90.67;101360.96;104858;1276;62158;-74
2022/09/05 07:25:55;;;;;;;5.00;1.10;;;;;;;13.54;89.60;101364.07;104853;1276;73730;-77
2022/09/05 07:29:05;;;;;;;4.40;1.20;;;;;;;13.66;87.72;101365.94;104876;1276;69394;-78
2022/09/05 07:32:17;;;;;;;4.80;1.50;;;;;;;13.68;86.43;101367.55;104750;1276;74178;-77
2022/09/05 07:35:38;;;;;;;5.00;1.30;;;;;;;13.74;85.45;101372.48;104776;1276;59304;-76
2022/09/05 07:38:55;;;;;;;5.50;1.20;;;;;;;13.84;84.25;101372.84;104807;1278;61931;-78
2022/09/05 07:42:35;;;;;;;5.30;1.60;;;;;;;14.04;81.33;101374.83;104862;1276;72218;-78
2022/09/05 07:46:16;;;;;;;5.90;1.50;;;;;;;14.29;81.18;101380.70;104852;1277;67090;-77
2022/09/05 07:49:27;;;;;;;5.80;1.60;;;;;;;14.63;80.59;101376.98;105073;1274;71473;-72
2022/09/05 07:52:43;;;;;;;6.00;1.60;;;;;;;15.05;80.47;101381.52;104897;1274;59563;-77
2022/09/05 07:56:11;;;;;;;5.40;1.60;;;;;;;16.66;76.99;101377.33;105069;1273;59737;-77
2022/09/05 07:59:39;;;;;;;5.50;1.70;;;;;;;17.53;70.72;101376.13;104923;1273;71046;-77
2022/09/05 08:02:46;;;;;;;4.80;1.40;;;;;;;18.61;67.26;101380.80;104940;1273;69506;-78
2022/09/05 08:06:05;;;;;;;6.60;1.50;;;;;;;19.70;63.49;101380.46;105029;1274;74165;-77
2022/09/05 08:09:23;;;;;;;5.60;1.60;;;;;;;19.39;62.02;101373.64;104866;1273;59328;-77
2022/09/05 08:13:01;;;;;;;5.70;1.30;;;;;;;18.85;62.62;101377.44;105017;1274;60485;-78
2022/09/05 08:16:28;;;;;;;5.00;1.40;;;;;;;18.33;63.79;101378.19;104921;1274;70478;-77
2022/09/05 08:19:54;;;;;;;5.10;1.20;;;;;;;17.80;63.64;101377.38;104881;1273;69058;-76
2022/09/05 08:23:56;;;;;;;5.20;1.30;;;;;;;17.48;65.00;101374.74;104930;1274;74175;-77
2022/09/05 08:27:43;;;;;;;4.10;0.90;;;;;;;17.23;65.26;101374.36;104900;1274;59531;-75
2022/09/05 08:31:05;;;;;;;6.30;2.20;;;;;;;17.05;66.40;101376.78;105024;1274;59405;-74
2022/09/05 08:34:22;;;;;;;5.80;1.50;;;;;;;16.96;66.19;101373.98;105099;1274;71291;-76
2022/09/05 08:37:51;;;;;;;8.00;3.20;;;;;;;16.96;66.38;101383.81;104955;1274;66672;-78
2022/09/05 08:41:34;;;;;;;6.60;1.60;;;;;;;17.08;66.72;101383.92;104881;1274;72242;-77
2022/09/05 08:45:20;;;;;;;5.30;1.40;;;;;;;17.20;66.45;101381.46;105005;1274;59418;-76
2022/09/05 08:49:39;;;;;;;5.50;1.60;;;;;;;18.82;63.40;101378.67;105044;1274;59321;-76
2022/09/05 08:53:14;;;;;;;6.90;1.40;;;;;;;21.90;55.76;101371.08;104982;1273;71016;-76
2022/09/05 08:57:17;;;;;;;5.70;1.50;;;;;;;23.24;50.46;101365.65;105047;1274;68360;-75
2022/09/05 09:00:25;;;;;;;5.00;1.40;;;;;;;24.22;45.58;101365.25;105060;1274;71851;-75
2022/09/05 09:04:15;;;;;;;6.00;1.20;;;;;;;24.50;44.62;101362.61;105060;1274;59508;-74
2022/09/05 09:07:51;;;;;;;6.40;1.50;;;;;;;24.30;43.34;101358.89;104909;1274;60788;-75
2022/09/05 09:11:11;;;;;;;5.30;1.10;;;;;;;24.50;42.95;101356.55;104821;1274;73636;-75
2022/09/05 09:14:47;;;;;;;5.40;1.10;;;;;;;24.04;43.41;101357.96;104947;1273;69330;-76
2022/09/05 09:17:54;;;;;;;8.70;2.20;;;;;;;23.27;44.04;101356.55;104974;1271;73920;-75
2022/09/05 09:21:36;;;;;;;6.20;1.20;;;;;;;22.95;45.60;101360.98;104831;1274;59345;-74
2022/09/05 09:24:50;;;;;;;6.80;1.50;;;;;;;23.09;43.84;101356.59;104837;1274;59431;-75
2022/09/05 09:28:54;;;;;;;5.30;1.20;;;;;;;22.78;44.56;101357.66;104819;1274;70980;-75
2022/09/05 09:32:25;;;;;;;7.00;1.40;;;;;;;22.78;44.32;101353.79;105077;1274;69374;-75
2022/09/05 09:35:39;;;;;;;4.60;1.00;;;;;;;23.21;43.33;101352.61;104871;1273;71424;-75
2022/09/05 09:39:26;;;;;;;4.10;1.00;;;;;;;24.46;41.38;101352.94;104921;1274;59371;-76
2022/09/05 09:42:56;;;;;;;5.40;1.10;;;;;;;25.41;38.47;101349.70;104932;1274;59681;-76
2022/09/05 09:46:57;;;;;;;4.50;1.20;;;;;;;24.76;38.17;101352.16;104840;1274;72106;-78
2022/09/05 09:50:46;;;;;;;5.90;1.20;;;;;;;26.34;37.21;101346.08;104660;1280;66666;-77
2022/09/05 09:54:52;;;;;;;5.40;1.10;;;;;;;27.31;34.11;101339.48;104476;1279;74137;-75
2022/09/05 09:58:40;;;;;;;4.90;1.00;;;;;;;26.13;34.76;101341.51;104496;1279;59613;-74
2022/09/05 10:02:23;;;;;;;4.60;1.00;;;;;;;25.04;36.59;101342.29;104372;1280;59648;-76
2022/09/05 10:06:34;;;;;;;5.50;1.10;;;;;;;23.81;38.38;101337.21;104440;1281;73493;-76
2022/09/05 10:10:54;;;;;;;7.20;1.20;;;;;;;22.88;40.78;101331.24;104505;1281;66976;-77
2022/09/05 10:14:53;;;;;;;6.50;1.10;;;;;;;22.07;41.83;101329.23;104464;1281;71541;-77
2022/09/05 10:18:20;;;;;;;5.40;1.00;;;;;;;21.51;43.46;101323.05;104370;1281;59471;-78
2022/09/05 10:21:50;;;;;;;4.20;0.90;;;;;;;21.33;44.19;101321.45;104329;1281;59304;-77
2022/09/05 10:25:41;;;;;;;6.70;1.10;;;;;;;21.50;42.96;101320.07;104547;1274;73980;-77
2022/09/05 10:28:49;;;;;;;5.40;1.30;;;;;;;21.22;43.72;101316.58;105032;1274;69330;-76
2022/09/05 10:32:31;;;;;;;5.70;1.10;;;;;;;21.50;43.67;101316.30;104944;1274;74284;-78
2022/09/05 10:36:24;;;;;;;4.70;1.00;;;;;;;22.53;42.16;101316.90;104863;1274;59361;-78
2022/09/05 10:39:43;;;;;;;4.40;1.00;;;;;;;22.73;40.79;101315.52;104959;1274;59490;-77
2022/09/05 10:43:12;;;;;;;4.00;0.90;;;;;;;22.78;40.75;101319.47;104864;1274;72016;-78
2022/09/05 10:46:59;;;;;;;6.30;1.00;;;;;;;22.87;40.44;101319.44;104793;1273;69307;-78
2022/09/05 10:50:31;;;;;;;5.00;1.20;;;;;;;23.08;40.18;101320.89;105138;1273;74222;-77
2022/09/05 10:54:04;;;;;;;6.40;1.00;;;;;;;23.45;39.04;101324.95;104856;1273;59302;-78
2022/09/05 10:57:42;;;;;;;4.00;0.90;;;;;;;23.73;38.11;101328.77;104907;1273;61952;-78
2022/09/05 11:01:24;;;;;;;3.50;0.90;;;;;;;24.44;36.66;101319.77;104923;1273;73854;-77
2022/09/05 11:05:22;;;;;;;3.90;0.80;;;;;;;25.28;35.08;101318.22;104934;1274;66955;-79
2022/09/05 11:09:05;;;;;;;3.70;1.00;;;;;;;25.40;35.31;101319.46;104858;1273;74055;-77
2022/09/05 11:12:31;;;;;;;3.60;0.90;;;;;;;26.17;33.76;101319.16;104653;1278;59512;-77
2022/09/05 11:15:56;;;;;;;4.80;0.90;;;;;;;26.66;33.19;101317.74;104496;1277;61951;-78
2022/09/05 11:19:51;;;;;;;3.80;0.90;;;;;;;26.68;32.40;101312.89;104562;1277;73780;-76
2022/09/05 11:23:07;;;;;;;4.10;0.80;;;;;;;26.47;32.92;101311.07;104500;1278;68638;-78
2022/09/05 11:26:42;;;;;;;4.80;1.00;;;;;;;26.18;33.03;101313.75;104670;1277;74168;-77
2022/09/05 11:30:01;;;;;;;5.30;1.30;;;;;;;25.94;33.21;101317.39;104508;1281;59266;-78
2022/09/05 11:33:43;;;;;;;4.80;1.00;;;;;;;25.78;33.85;101313.60;104526;1278;60305;-79
2022/09/05 11:37:48;;;;;;;5.00;1.10;;;;;;;25.39;34.59;101307.34;104625;1277;74279;-78
2022/09/05 11:41:47;;;;;;;5.00;0.90;;;;;;;26.14;34.50;101304.11;104608;1278;67117;-78
2022/09/05 11:45:25;;;;;;;4.50;0.90;;;;;;;27.33;32.73;101296.59;104947;1273;72353;-76
2022/09/05 11:48:49;;;;;;;3.80;0.80;;;;;;;27.75;29.98;101297.91;105000;1273;59414;-76
2022/09/05 11:52:15;;;;;;;4.00;0.70;;;;;;;27.70;30.07;101296.79;105073;1273;61849;-76
2022/09/05 11:55:53;;;;;;;4.20;0.80;;;;;;;27.29;29.84;101289.02;104886;1273;74058;-76
2022/09/05 11:59:36;;;;;;;5.20;0.70;;;;;;;26.67;30.51;101285.92;105046;1273;66953;-76
2022/09/05 12:03:13;;;;;;;4.50;1.00;;;;;;;26.18;30.50;101287.27;104673;1276;74206;-77
2022/09/05 12:07:11;;;;;;;4.20;1.00;;;;;;;25.73;31.85;101283.90;104919;1272;61207;-75
2022/09/05 12:11:11;;;;;;;3.50;0.90;;;;;;;25.04;32.98;101283.65;104831;1273;59503;-75
2022/09/05 12:15:08;;;;;;;4.10;1.00;;;;;;;24.60;33.97;101278.88;104994;1273;73829;-76
2022/09/05 12:18:43;;;;;;;3.50;0.80;;;;;;;24.31;34.34;101279.64;104959;1273;67343;-77
2022/09/05 12:22:02;;;;;;;4.50;1.00;;;;;;;24.14;35.41;101280.53;104803;1273;74245;-75
2022/09/05 12:26:15;;;;;;;4.00;0.80;;;;;;;24.07;36.22;101279.24;104853;1273;59492;-76
2022/09/05 12:29:48;;;;;;;5.50;1.00;;;;;;;23.74;35.89;101270.58;104924;1273;61916;-76
2022/09/05 12:33:11;;;;;;;4.20;1.00;;;;;;;23.37;36.23;101269.63;105000;1273;71738;-75
2022/09/05 12:36:49;;;;;;;4.00;0.90;;;;;;;23.01;36.47;101267.72;104951;1273;66650;-78
2022/09/05 12:40:37;;;;;;;4.00;0.90;;;;;;;22.68;36.72;101273.73;104937;1273;71484;-76
2022/09/05 12:44:02;;;;;;;4.60;1.20;;;;;;;22.38;37.03;101268.63;104781;1273;61329;-80
2022/09/05 12:47:29;;;;;;;6.10;2.60;;;;;;;22.04;37.34;101271.41;104988;1273;59387;-76
2022/09/05 12:50:45;;;;;;;5.80;1.80;;;;;;;21.90;37.82;101266.98;105267;1273;71960;-77
2022/09/05 12:54:21;;;;;;;3.80;1.00;;;;;;;21.89;38.21;101262.02;105172;1276;68100;-76
2022/09/05 12:57:42;;;;;;;4.30;0.90;;;;;;;21.73;38.23;101257.55;104913;1273;74153;-76
2022/09/05 13:01:16;;;;;;;4.60;1.20;;;;;;;21.54;38.48;101255.23;104854;1273;59462;-76
2022/09/05 13:04:57;;;;;;;3.70;0.80;;;;;;;21.42;38.91;101251.61;104150;1273;1433026;-76
2022/09/05 13:08:11;;;;;;;3.80;0.90;;;;;;;21.34;39.56;101254.20;105073;1273;72155;-76
2022/09/05 13:11:23;;;;;;;3.90;1.00;;;;;;;21.24;39.35;101257.70;104881;1274;69285;-77
2022/09/05 13:15:14;;;;;;;3.70;0.90;;;;;;;21.08;39.56;101254.73;104893;1273;71612;-79
2022/09/05 13:18:41;;;;;;;3.30;0.80;;;;;;;20.85;40.25;101252.35;105027;1273;59424;-79
2022/09/05 13:21:51;;;;;;;4.30;1.00;;;;;;;20.73;40.63;101249.95;104982;1273;60194;-77
2022/09/05 13:25:22;;;;;;;3.40;0.80;;;;;;;20.66;40.57;101249.23;104987;1273;71134;-78
2022/09/05 13:28:49;;;;;;;4.30;0.90;;;;;;;20.55;40.46;101249.44;104918;1273;69411;-77
2022/09/05 13:32:29;;;;;;;3.70;0.90;;;;;;;20.44;41.13;101253.77;104965;1273;71556;-78
2022/09/05 13:36:05;;;;;;;3.80;0.80;;;;;;;20.32;41.39;101253.27;105048;1273;59510;-77
2022/09/05 13:39:58;;;;;;;3.90;1.00;;;;;;;20.22;41.50;101252.58;104897;1273;59282;-78
2022/09/05 13:43:15;;;;;;;4.50;1.10;;;;;;;20.05;42.12;101257.69;104912;1273;72656;-79
2022/09/05 13:46:46;;;;;;;3.20;0.80;;;;;;;19.92;42.29;101261.35;104869;1273;68465;-77
2022/09/05 13:50:12;;;;;;;4.60;0.90;;;;;;;19.71;43.24;101259.70;105055;1273;74351;-78
2022/09/05 13:53:50;;;;;;;3.50;0.90;;;;;;;19.48;43.70;101258.75;104912;1273;59460;-77
2022/09/05 13:57:19;;;;;;;3.40;0.90;;;;;;;19.27;44.29;101260.40;104958;1273;59279;-76
2022/09/05 14:00:59;;;;;;;3.80;0.90;;;;;;;19.23;44.52;101257.17;105007;1273;73732;-74
2022/09/05 14:04:53;;;;;;;4.30;1.10;;;;;;;19.21;44.65;101250.83;105092;1273;69325;-75
2022/09/05 14:08:54;;;;;;;5.10;0.80;;;;;;;19.18;45.57;101252.75;104831;1273;75193;-76
2022/09/05 14:12:32;;;;;;;4.10;1.00;;;;;;;19.10;46.16;101253.33;104899;1273;59428;-75
2022/09/05 14:16:07;;;;;;;3.20;0.80;;;;;;;18.95;46.14;101249.15;104913;1273;61736;-77
2022/09/05 14:23:05;;;;;;;4.80;1.00;;;;;;;18.64;47.31;101239.30;104947;1273;67874;-74
2022/09/05 14:26:20;;;;;;;4.60;1.10;;;;;;;18.56;47.32;101236.10;105121;1273;74318;-74
2022/09/05 14:29:41;;;;;;;5.70;1.30;;;;;;;18.48;48.04;101232.13;104797;1273;59688;-75
2022/09/05 14:33:14;;;;;;;5.00;1.10;;;;;;;18.41;47.84;101230.27;104893;1273;60609;-78
2022/09/05 14:37:26;;;;;;;5.10;0.90;;;;;;;18.30;47.26;101230.74;105178;1273;73268;-77
2022/09/05 14:41:27;;;;;;;10.00;4.60;;;;;;;18.04;46.68;101230.64;104843;1273;67437;-77
2022/09/05 14:44:57;;;;;;;6.50;2.00;;;;;;;17.88;46.46;101227.36;104916;1271;72988;-79
2022/09/05 14:48:12;;;;;;;5.20;1.10;;;;;;;17.89;46.43;101221.15;104805;1273;59312;-80
2022/09/05 14:51:03;;;;;;;4.50;1.00;;;;;;;17.89;46.21;101218.67;104814;1273;59377;-79
2022/09/05 14:54:03;;;;;;;5.30;1.10;;;;;;;17.73;46.72;101215.23;104948;1273;72522;-80
2022/09/05 14:57:00;;;;;;;4.10;0.90;;;;;;;17.57;47.33;101218.05;105013;1273;68075;-79
2022/09/05 15:00:16;;;;;;;4.00;1.00;;;;;;;17.53;47.72;101218.95;104837;1273;72643;-78
2022/09/05 15:03:40;;;;;;;4.90;1.20;;;;;;;17.49;47.67;101215.75;104999;1273;59720;-77
2022/09/05 15:07:12;;;;;;;5.50;1.00;;;;;;;17.36;47.20;101213.86;105161;1273;59988;-77
2022/09/05 15:10:15;;;;;;;4.50;1.10;;;;;;;17.23;46.99;101210.66;105081;1273;72514;-78
2022/09/05 15:13:23;;;;;;;4.60;1.30;;;;;;;17.05;47.42;101205.73;104811;1274;66954;-77
2022/09/05 15:16:14;;;;;;;3.80;1.00;;;;;;;16.93;47.57;101206.07;104680;1273;74507;-78
2022/09/05 15:19:05;;;;;;;4.50;1.10;;;;;;;16.88;48.44;101204.91;104871;1275;59230;-79
2022/09/05 15:21:53;;;;;;;4.70;1.10;;;;;;;16.84;48.65;101210.06;105115;1273;60529;-76
2022/09/05 15:24:41;;;;;;;5.40;1.30;;;;;;;16.79;49.03;101210.45;105147;1274;71123;-77
2022/09/05 15:27:30;;;;;;;4.20;1.10;;;;;;;16.75;49.11;101203.89;104994;1273;68107;-77
2022/09/05 15:30:38;;;;;;;4.30;1.00;;;;;;;16.67;48.95;101201.70;105109;1273;71920;-77
2022/09/05 15:33:29;;;;;;;5.20;1.00;;;;;;;16.51;49.23;101199.77;105218;1273;59340;-77
2022/09/05 15:36:34;;;;;;;4.10;0.80;;;;;;;16.44;49.11;101202.19;106004;1273;59657;-76
2022/09/05 15:39:30;;;;;;;4.60;1.10;;;;;;;16.34;49.17;101198.88;105505;1273;73390;-77
2022/09/05 15:42:22;;;;;;;5.70;1.10;;;;;;;16.18;49.02;101196.46;105074;1273;67969;-77
2022/09/05 15:45:17;;;;;;;5.80;1.10;;;;;;;16.03;49.31;101197.21;105116;1273;71861;-76
2022/09/05 15:48:16;;;;;;;5.10;1.20;;;;;;;15.87;49.34;101195.23;105014;1273;59249;-76
2022/09/05 15:51:26;;;;;;;5.30;1.20;;;;;;;15.78;50.19;101198.48;104902;1274;60639;-77
2022/09/05 15:54:28;;;;;;;4.30;1.00;;;;;;;15.67;50.56;101197.39;104954;1274;73767;-78
2022/09/05 15:57:34;;;;;;;4.20;1.00;;;;;;;15.58;50.68;101197.94;104997;1274;66970;-78
2022/09/05 16:00:31;;;;;;;4.20;0.90;;;;;;;15.50;50.72;101199.80;104784;1274;74841;-76
2022/09/05 16:03:32;;;;;;;4.40;1.00;;;;;;;15.46;51.36;101201.25;104924;1274;59343;-76
2022/09/05 16:06:50;;;;;;;4.50;1.10;;;;;;;15.41;52.12;101200.19;104908;1274;59450;-78
2022/09/05 16:10:00;;;;;;;4.50;1.10;;;;;;;15.35;52.42;101196.72;105152;1274;73912;-76
2022/09/05 16:13:17;;;;;;;4.60;1.10;;;;;;;15.27;52.05;101197.51;104725;1274;68677;-77
2022/09/05 16:16:30;;;;;;;4.20;0.80;;;;;;;15.17;52.33;101198.70;105114;1275;71612;-76
2022/09/05 16:19:46;;;;;;;5.60;1.20;;;;;;;15.08;52.56;101196.41;105187;1274;59397;-76
2022/09/05 16:23:17;;;;;;;6.80;1.20;;;;;;;14.99;52.85;101195.45;105193;1274;60609;-77